createdAt,value
2017-08-02T00:01:31.257Z,2.53
2017-08-02T00:03:59.515Z,2.33
2017-08-02T00:06:27.318Z,2.97
2017-08-02T00:09:00.568Z,2.63
2017-08-02T00:11:31.752Z,2.47
2017-08-02T00:13:59.242Z,2.37
2017-08-02T00:16:30.359Z,2.30
2017-08-02T00:19:01.201Z,3.40
2017-08-02T00:21:28.693Z,2.77
2017-08-02T00:24:03.051Z,2.30
2017-08-02T00:26:30.544Z,2.70
2017-08-02T00:29:01.072Z,2.93
2017-08-02T00:31:31.740Z,3.30
2017-08-02T00:33:59.221Z,3.40
2017-08-02T00:36:26.992Z,2.50
2017-08-02T00:39:00.356Z,2.30
2017-08-02T00:41:28.115Z,2.90
2017-08-02T00:43:55.604Z,3.30
2017-08-02T00:46:30.416Z,2.10
2017-08-02T00:48:57.917Z,2.50
2017-08-02T00:51:25.416Z,2.00
2017-08-02T00:53:52.920Z,2.83
2017-08-02T00:56:20.408Z,2.63
2017-08-02T00:58:47.917Z,3.10
2017-08-02T01:01:21.967Z,2.70
2017-08-02T01:03:49.845Z,2.30
2017-08-02T01:06:20.438Z,2.67
2017-08-02T01:08:47.940Z,3.10
2017-08-02T01:11:21.102Z,3.23
2017-08-02T01:13:51.899Z,2.40
2017-08-02T01:16:20.524Z,4.30
2017-08-02T01:18:48.787Z,3.70
2017-08-02T01:21:17.432Z,2.87
2017-08-02T01:23:51.017Z,3.20
2017-08-02T01:26:22.148Z,4.17
2017-08-02T01:28:50.277Z,2.80
2017-08-02T01:31:17.756Z,2.20
2017-08-02T01:33:46.016Z,2.60
2017-08-02T01:36:13.526Z,2.30
2017-08-02T01:38:51.618Z,2.70
2017-08-02T01:41:22.044Z,3.57
2017-08-02T01:43:49.535Z,3.03
2017-08-02T01:46:17.360Z,3.27
2017-08-02T01:48:51.371Z,3.00
2017-08-02T01:51:19.964Z,2.53
2017-08-02T01:53:47.457Z,3.00
2017-08-02T01:56:14.938Z,3.50
2017-08-02T01:58:50.716Z,3.53
2017-08-02T02:01:22.251Z,2.77
2017-08-02T02:03:49.751Z,3.20
2017-08-02T02:06:17.254Z,2.67
2017-08-02T02:08:44.748Z,2.50
2017-08-02T02:11:13.331Z,2.50
2017-08-02T02:13:50.128Z,3.20
2017-08-02T02:16:21.164Z,2.13
2017-08-02T02:18:51.642Z,3.43
2017-08-02T02:21:22.628Z,2.30
2017-08-02T02:23:50.124Z,2.70
2017-08-02T02:26:17.623Z,2.27
2017-08-02T02:28:45.122Z,3.57
2017-08-02T02:31:20.157Z,3.57
2017-08-02T02:33:47.998Z,2.57
2017-08-02T02:36:21.480Z,2.80
2017-08-02T02:38:49.266Z,3.07
2017-08-02T02:41:16.768Z,2.73
2017-08-02T02:43:50.406Z,3.07
2017-08-02T02:46:17.892Z,2.77
2017-08-02T02:48:51.440Z,2.60
2017-08-02T02:51:21.854Z,2.80
2017-08-02T02:53:49.346Z,2.50
2017-08-02T02:56:22.742Z,3.97
2017-08-02T02:58:51.009Z,2.57
2017-08-02T03:01:22.164Z,2.37
2017-08-02T03:03:50.620Z,3.57
2017-08-02T03:06:21.387Z,2.73
2017-08-02T03:08:48.887Z,2.90
2017-08-02T03:11:23.202Z,2.20
2017-08-02T03:13:50.686Z,3.37
2017-08-02T03:16:18.174Z,2.90
2017-08-02T03:18:45.687Z,3.60
2017-08-02T03:21:13.195Z,3.00
2017-08-02T03:23:51.086Z,2.93
2017-08-02T03:26:19.338Z,3.60
2017-08-02T03:28:53.176Z,2.70
2017-08-02T03:31:31.508Z,2.37
2017-08-02T03:33:59.296Z,2.90
2017-08-02T03:36:32.560Z,2.57
2017-08-02T03:39:00.731Z,2.90
2017-08-02T03:41:28.216Z,3.50
2017-08-02T03:43:55.694Z,3.20
2017-08-02T03:46:23.187Z,3.87
2017-08-02T03:48:51.457Z,3.23
2017-08-02T03:51:21.043Z,2.30
2017-08-02T03:53:48.529Z,3.70
2017-08-02T03:56:17.135Z,3.87
2017-08-02T03:58:44.649Z,2.80
2017-08-02T04:01:20.271Z,3.60
2017-08-02T04:03:47.774Z,4.07
2017-08-02T04:06:15.249Z,3.17
2017-08-02T04:08:50.733Z,4.30
2017-08-02T04:11:18.219Z,3.83
2017-08-02T04:13:51.655Z,4.63
2017-08-02T04:16:19.147Z,3.80
2017-08-02T04:18:46.637Z,3.33
2017-08-02T04:21:14.126Z,3.10
2017-08-02T04:23:41.618Z,3.83
2017-08-02T04:26:09.554Z,3.10
2017-08-02T04:28:37.809Z,3.73
2017-08-02T04:31:12.483Z,3.53
2017-08-02T04:33:39.972Z,4.10
2017-08-02T04:36:07.471Z,3.70
2017-08-02T04:38:41.355Z,3.90
2017-08-02T04:41:11.945Z,3.80
2017-08-02T04:43:40.523Z,4.43
2017-08-02T04:46:08.029Z,3.90
2017-08-02T04:48:41.407Z,3.40
2017-08-02T04:51:08.896Z,3.50
2017-08-02T04:53:40.729Z,3.70
2017-08-02T04:56:11.812Z,4.07
2017-08-02T04:58:40.760Z,3.50
2017-08-02T05:01:08.260Z,3.33
2017-08-02T05:03:36.046Z,3.33
2017-08-02T05:06:03.534Z,4.80
2017-08-02T05:08:41.018Z,4.03
2017-08-02T05:11:11.548Z,3.60
2017-08-02T05:13:39.038Z,3.37
2017-08-02T05:16:07.635Z,3.00
2017-08-02T05:18:35.129Z,4.00
2017-08-02T05:21:02.621Z,4.03
2017-08-02T05:23:30.519Z,3.80
2017-08-02T05:25:58.795Z,3.73
2017-08-02T05:28:27.332Z,3.40
2017-08-02T05:30:54.825Z,3.83
2017-08-02T05:33:30.632Z,3.83
2017-08-02T05:35:58.136Z,4.50
2017-08-02T05:38:26.410Z,3.40
2017-08-02T05:40:53.948Z,3.20
2017-08-02T05:43:30.031Z,4.27
2017-08-02T05:45:57.811Z,3.67
2017-08-02T05:48:26.064Z,3.70
2017-08-02T05:50:53.571Z,3.40
2017-08-02T05:53:21.068Z,3.10
2017-08-02T05:55:52.023Z,2.73
2017-08-02T05:58:20.602Z,3.50
2017-08-02T06:00:48.117Z,2.70
2017-08-02T06:03:21.772Z,3.43
2017-08-02T06:05:50.044Z,3.70
2017-08-02T06:08:20.978Z,2.63
2017-08-02T06:10:48.490Z,2.80
2017-08-02T06:13:15.969Z,3.00
2017-08-02T06:15:51.294Z,3.37
2017-08-02T06:18:20.414Z,3.10
2017-08-02T06:20:51.320Z,3.73
2017-08-02T06:23:20.463Z,3.03
2017-08-02T06:25:51.242Z,2.70
2017-08-02T06:28:20.478Z,2.83
2017-08-02T06:30:51.481Z,2.97
2017-08-02T06:33:20.812Z,3.00
2017-08-02T06:35:51.579Z,2.50
2017-08-02T06:38:19.063Z,3.10
2017-08-02T06:40:52.473Z,2.80
2017-08-02T06:43:19.970Z,2.97
2017-08-02T06:45:47.455Z,3.20
2017-08-02T06:48:15.251Z,3.23
2017-08-02T06:50:42.731Z,2.53
2017-08-02T06:53:10.377Z,3.17
2017-08-02T06:55:38.960Z,2.70
2017-08-02T06:58:12.459Z,2.60
2017-08-02T07:00:40.319Z,2.70
2017-08-02T07:03:10.920Z,2.77
2017-08-02T07:05:41.816Z,2.10
2017-08-02T07:08:09.304Z,2.90
2017-08-02T07:10:36.806Z,3.10
2017-08-02T07:13:04.303Z,2.60
2017-08-02T07:15:31.804Z,2.20
2017-08-02T07:18:01.018Z,2.87
2017-08-02T07:20:30.373Z,2.27
2017-08-02T07:22:57.891Z,2.17
2017-08-02T07:25:25.708Z,1.93
2017-08-02T07:27:59.969Z,2.50
2017-08-02T07:30:27.814Z,1.93
2017-08-02T07:32:56.068Z,2.00
2017-08-02T07:35:31.120Z,1.83
2017-08-02T07:37:58.699Z,1.80
2017-08-02T07:40:33.657Z,2.73
2017-08-02T07:43:01.151Z,2.40
2017-08-02T07:45:30.503Z,1.80
2017-08-02T07:47:58.029Z,1.73
2017-08-02T07:50:25.536Z,2.37
2017-08-02T07:53:00.410Z,1.57
2017-08-02T07:55:30.971Z,1.50
2017-08-02T07:57:59.219Z,1.73
2017-08-02T08:00:30.703Z,1.80
2017-08-02T08:02:58.183Z,1.30
2017-08-02T08:05:32.341Z,1.90
2017-08-02T08:07:59.852Z,1.60
2017-08-02T08:10:30.574Z,1.90
2017-08-02T08:13:01.087Z,2.03
2017-08-02T08:15:28.579Z,2.60
2017-08-02T08:17:56.342Z,2.20
2017-08-02T08:20:30.837Z,1.70
2017-08-02T08:22:58.723Z,2.00
2017-08-02T08:25:32.052Z,2.03
2017-08-02T08:27:59.847Z,1.83
2017-08-02T08:30:27.344Z,1.40
2017-08-02T08:32:54.830Z,1.83
2017-08-02T08:35:30.435Z,1.93
2017-08-02T08:38:01.362Z,1.60
2017-08-02T08:40:29.975Z,1.73
2017-08-02T08:43:00.618Z,1.83
2017-08-02T08:45:31.058Z,1.40
2017-08-02T08:47:58.604Z,1.50
2017-08-02T08:50:32.960Z,1.90
2017-08-02T08:53:00.548Z,1.77
2017-08-02T08:55:32.222Z,1.80
2017-08-02T08:57:59.783Z,1.50
2017-08-02T09:00:27.274Z,1.83
2017-08-02T09:03:00.901Z,1.87
2017-08-02T09:05:28.432Z,1.43
2017-08-02T09:07:56.063Z,1.53
2017-08-02T09:10:30.378Z,1.40
2017-08-02T09:12:57.854Z,1.30
2017-08-02T09:15:25.703Z,1.70
2017-08-02T09:18:00.168Z,1.40
2017-08-02T09:20:31.302Z,1.50
2017-08-02T09:23:00.623Z,1.90
2017-08-02T09:25:28.141Z,1.77
2017-08-02T09:28:01.413Z,1.80
2017-08-02T09:30:31.235Z,1.73
2017-08-02T09:32:59.007Z,1.70
2017-08-02T09:35:30.355Z,2.10
2017-08-02T09:37:57.847Z,2.17
2017-08-02T09:40:25.363Z,1.50
2017-08-02T09:42:52.852Z,1.50
2017-08-02T09:45:20.788Z,1.90
2017-08-02T09:47:49.987Z,2.10
2017-08-02T09:50:21.441Z,1.80
2017-08-02T09:52:50.542Z,1.80
2017-08-02T09:55:21.475Z,1.50
2017-08-02T09:57:50.613Z,1.70
2017-08-02T10:00:21.543Z,1.30
2017-08-02T10:02:50.815Z,1.90
2017-08-02T10:05:21.754Z,1.57
2017-08-02T10:07:50.976Z,1.50
2017-08-02T10:10:21.511Z,1.70
2017-08-02T10:12:52.060Z,1.40
2017-08-02T10:15:19.560Z,1.67
2017-08-02T10:17:47.081Z,0.87
2017-08-02T10:20:20.657Z,1.63
2017-08-02T10:22:48.491Z,1.30
2017-08-02T10:25:21.985Z,1.27
2017-08-02T10:27:51.178Z,1.63
2017-08-02T10:30:20.389Z,1.73
2017-08-02T10:32:51.202Z,1.23
2017-08-02T10:35:19.451Z,1.57
2017-08-02T10:37:53.150Z,1.13
2017-08-02T10:40:20.634Z,1.60
2017-08-02T10:42:50.368Z,1.40
2017-08-02T10:45:18.136Z,1.50
2017-08-02T10:47:45.626Z,1.40
2017-08-02T10:50:21.101Z,1.60
2017-08-02T10:52:48.589Z,1.23
2017-08-02T10:55:16.076Z,1.80
2017-08-02T10:57:43.575Z,1.43
2017-08-02T11:00:21.194Z,1.50
2017-08-02T11:02:49.727Z,1.30
2017-08-02T11:05:17.218Z,1.47
2017-08-02T11:07:44.706Z,1.00
2017-08-02T11:10:20.754Z,1.10
2017-08-02T11:12:48.246Z,1.40
2017-08-02T11:15:16.075Z,1.00
2017-08-02T11:17:50.504Z,1.20
2017-08-02T11:20:18.270Z,1.60
2017-08-02T11:22:45.756Z,1.10
2017-08-02T11:25:13.283Z,1.33
2017-08-02T11:27:50.982Z,1.30
2017-08-02T11:30:20.606Z,1.43
2017-08-02T11:32:51.698Z,1.40
2017-08-02T11:35:20.925Z,1.50
2017-08-02T11:37:51.955Z,0.97
2017-08-02T11:40:20.211Z,1.10
2017-08-02T11:42:53.983Z,1.47
2017-08-02T11:45:26.083Z,1.77
2017-08-02T11:47:55.758Z,1.10
2017-08-02T11:50:30.067Z,1.23
2017-08-02T11:52:57.871Z,1.30
2017-08-02T11:55:25.368Z,1.53
2017-08-02T11:57:52.856Z,0.90
2017-08-02T12:00:20.350Z,1.23
2017-08-02T12:02:47.828Z,1.30
2017-08-02T12:05:15.675Z,0.97
2017-08-02T12:07:50.016Z,1.60
2017-08-02T12:10:21.238Z,2.00
2017-08-02T12:12:50.461Z,1.27
2017-08-02T12:15:17.957Z,1.40
2017-08-02T12:17:45.786Z,1.40
2017-08-02T12:20:20.072Z,1.20
2017-08-02T12:22:47.945Z,1.50
2017-08-02T12:25:21.481Z,1.40
2017-08-02T12:27:50.746Z,1.13
2017-08-02T12:30:22.117Z,1.40
2017-08-02T12:32:50.902Z,1.47
2017-08-02T12:35:18.404Z,1.63
2017-08-02T12:37:45.898Z,1.60
2017-08-02T12:40:13.397Z,1.07
2017-08-02T12:42:40.904Z,1.33
2017-08-02T12:45:12.485Z,1.63
2017-08-02T12:47:40.811Z,1.50
2017-08-02T12:50:08.300Z,1.30
2017-08-02T12:52:36.076Z,1.30
2017-08-02T12:55:10.340Z,1.93
2017-08-02T12:57:38.264Z,1.80
2017-08-02T13:00:05.750Z,1.13
2017-08-02T13:02:40.508Z,1.57
2017-08-02T13:05:08.012Z,1.23
2017-08-02T13:07:41.720Z,0.90
2017-08-02T13:10:09.227Z,1.60
2017-08-02T13:12:42.966Z,1.53
2017-08-02T13:15:10.560Z,1.23
2017-08-02T13:17:38.042Z,1.43
2017-08-02T13:20:05.530Z,1.50
2017-08-02T13:22:40.201Z,1.20
2017-08-02T13:25:12.391Z,1.90
2017-08-02T13:27:39.955Z,1.60
2017-08-02T13:30:07.451Z,1.20
2017-08-02T13:32:35.219Z,1.50
2017-08-02T13:35:02.736Z,1.30
2017-08-02T13:37:30.256Z,1.20
2017-08-02T13:40:01.164Z,1.43
2017-08-02T13:42:30.609Z,1.40
2017-08-02T13:45:02.402Z,1.07
2017-08-02T13:47:30.665Z,1.40
2017-08-02T13:49:58.188Z,1.20
2017-08-02T13:52:25.694Z,1.27
2017-08-02T13:55:00.340Z,1.50
2017-08-02T13:57:31.675Z,1.37
2017-08-02T13:59:59.281Z,1.30
2017-08-02T14:02:30.432Z,1.43
2017-08-02T14:05:01.947Z,1.53
2017-08-02T14:07:29.460Z,1.70
2017-08-02T14:09:57.240Z,1.70
2017-08-02T14:12:24.800Z,1.43
2017-08-02T14:14:52.383Z,1.17
2017-08-02T14:17:20.166Z,1.50
2017-08-02T14:19:52.396Z,1.33
2017-08-02T14:22:21.515Z,1.60
2017-08-02T14:24:54.738Z,1.17
2017-08-02T14:27:22.626Z,1.30
2017-08-02T14:29:50.139Z,1.27
2017-08-02T14:32:17.651Z,1.50
2017-08-02T14:34:45.160Z,1.30
2017-08-02T14:37:13.402Z,1.77
2017-08-02T14:39:41.239Z,1.00
2017-08-02T14:42:08.727Z,1.93
2017-08-02T14:44:36.224Z,1.13
2017-08-02T14:47:10.514Z,1.20
2017-08-02T14:49:38.006Z,1.10
2017-08-02T14:52:11.421Z,1.50
2017-08-02T14:54:38.906Z,1.33
2017-08-02T14:57:07.166Z,1.27
2017-08-02T14:59:35.732Z,1.33
2017-08-02T15:02:03.210Z,1.00
2017-08-02T15:04:30.698Z,1.43
2017-08-02T15:06:58.435Z,1.67
2017-08-02T15:09:32.550Z,1.30
2017-08-02T15:12:00.628Z,1.80
2017-08-02T15:14:28.879Z,1.57
2017-08-02T15:16:56.380Z,1.43
2017-08-02T15:19:31.027Z,1.40
2017-08-02T15:21:58.532Z,1.40
2017-08-02T15:24:32.172Z,1.63
2017-08-02T15:26:59.680Z,1.37
2017-08-02T15:29:30.293Z,1.17
2017-08-02T15:31:57.820Z,1.43
2017-08-02T15:34:25.305Z,1.60
2017-08-02T15:37:01.330Z,1.10
2017-08-02T15:39:28.820Z,1.40
2017-08-02T15:41:57.096Z,1.33
2017-08-02T15:44:25.421Z,1.50
2017-08-02T15:47:00.793Z,1.43
2017-08-02T15:49:28.658Z,1.40
2017-08-02T15:51:56.160Z,2.10
2017-08-02T15:54:23.668Z,1.40
2017-08-02T15:57:01.628Z,1.27
2017-08-02T15:59:30.354Z,1.80
2017-08-02T16:01:57.843Z,1.80
2017-08-02T16:04:25.348Z,1.30
2017-08-02T16:06:52.834Z,1.67
2017-08-02T16:09:20.344Z,1.43
2017-08-02T16:11:51.687Z,1.40
2017-08-02T16:14:19.476Z,1.70
2017-08-02T16:16:52.619Z,2.07
2017-08-02T16:19:20.408Z,1.73
2017-08-02T16:21:51.111Z,1.50
2017-08-02T16:24:18.598Z,1.50
2017-08-02T16:26:46.407Z,2.00
2017-08-02T16:29:20.824Z,1.53
2017-08-02T16:31:48.596Z,1.47
2017-08-02T16:34:22.094Z,2.17
2017-08-02T16:36:49.922Z,1.53
2017-08-02T16:39:17.517Z,1.60
2017-08-02T16:41:52.137Z,1.67
2017-08-02T16:44:20.865Z,1.50
2017-08-02T16:46:51.835Z,1.20
2017-08-02T16:49:21.020Z,1.47
2017-08-02T16:54:29.653Z,1.90
2017-08-02T16:56:58.079Z,1.50
2017-08-02T16:59:25.567Z,1.37
2017-08-02T17:02:01.011Z,1.80
2017-08-02T17:04:28.497Z,1.80
2017-08-02T17:07:02.681Z,1.37
2017-08-02T17:09:30.940Z,1.67
2017-08-02T17:11:59.239Z,1.50
2017-08-02T17:14:27.945Z,1.20
2017-08-02T17:16:55.442Z,1.60
2017-08-02T17:19:30.510Z,1.70
2017-08-02T17:22:00.971Z,1.90
2017-08-02T17:24:32.151Z,2.10
2017-08-02T17:27:01.180Z,1.10
2017-08-02T17:29:31.697Z,1.30
2017-08-02T17:32:00.693Z,1.60
2017-08-02T17:34:28.183Z,1.33
2017-08-02T17:36:55.677Z,2.17
2017-08-02T17:39:30.381Z,1.53
2017-08-02T17:42:04.831Z,1.77
2017-08-02T17:47:21.799Z,1.60
2017-08-02T17:49:49.683Z,2.20
2017-08-02T17:52:17.183Z,1.50
2017-08-02T17:54:44.663Z,1.60
2017-08-02T17:57:12.476Z,1.80
2017-08-02T17:59:39.976Z,2.10
2017-08-02T18:02:07.483Z,1.70
2017-08-02T18:04:41.526Z,1.50
2017-08-02T18:07:09.019Z,1.90
2017-08-02T18:09:36.510Z,2.27
2017-08-02T18:12:04.021Z,3.03
2017-08-02T18:14:31.500Z,2.00
2017-08-02T18:16:58.986Z,1.30
2017-08-02T18:19:26.841Z,1.83
2017-08-02T18:22:00.626Z,1.73
2017-08-02T18:24:28.492Z,1.33
2017-08-02T18:26:55.997Z,1.77
2017-08-02T18:29:30.726Z,2.20
2017-08-02T18:31:59.574Z,2.27
2017-08-02T18:34:27.080Z,2.10
2017-08-02T18:37:00.329Z,1.97
2017-08-02T18:39:27.841Z,1.93
2017-08-02T18:41:55.633Z,2.17
2017-08-02T18:44:30.101Z,1.70
2017-08-02T18:46:58.699Z,1.70
2017-08-02T18:49:26.199Z,2.00
2017-08-02T18:52:00.349Z,1.50
2017-08-02T18:54:27.857Z,1.77
2017-08-02T18:56:58.086Z,1.80
2017-08-02T18:59:38.000Z,2.07
2017-08-02T19:02:06.976Z,2.47
2017-08-02T19:04:40.875Z,2.00
2017-08-02T19:09:56.527Z,1.83
2017-08-02T19:12:31.698Z,2.07
2017-08-02T19:15:03.014Z,2.00
2017-08-02T19:17:40.904Z,2.13
2017-08-02T19:20:08.671Z,2.40
2017-08-02T19:22:36.152Z,2.00
2017-08-02T19:25:03.648Z,1.80
2017-08-02T19:27:41.798Z,1.90
2017-08-02T19:30:09.840Z,2.23
2017-08-02T19:32:37.330Z,1.97
2017-08-02T19:35:10.515Z,1.93
2017-08-02T19:37:41.268Z,1.80
2017-08-02T19:40:08.778Z,1.40
2017-08-02T19:42:36.272Z,1.80
2017-08-02T19:45:03.776Z,1.67
2017-08-02T19:47:31.281Z,1.40
2017-08-02T19:49:58.758Z,1.90
2017-08-02T19:52:26.543Z,1.43
2017-08-02T19:55:00.290Z,1.77
2017-08-02T19:57:28.146Z,2.07
2017-08-02T19:59:55.648Z,1.50
2017-08-02T20:02:30.436Z,1.83
2017-08-02T20:04:57.929Z,1.60
2017-08-02T20:07:31.704Z,1.90
2017-08-02T20:09:59.190Z,2.10
2017-08-02T20:12:26.690Z,2.30
2017-08-02T20:14:54.199Z,2.20
2017-08-02T20:17:31.852Z,2.53
2017-08-02T20:20:01.168Z,2.30
2017-08-02T20:22:30.404Z,2.40
2017-08-02T20:25:00.828Z,2.60
2017-08-02T20:27:28.337Z,2.27
2017-08-02T20:29:55.827Z,2.10
2017-08-02T20:32:30.221Z,2.00
2017-08-02T20:34:57.710Z,2.03
2017-08-02T20:37:25.539Z,2.07
2017-08-02T20:39:53.040Z,2.00
2017-08-02T20:42:30.792Z,2.33
2017-08-02T20:45:01.298Z,2.87
2017-08-02T20:47:29.551Z,1.90
2017-08-02T20:49:57.076Z,2.23
2017-08-02T20:52:24.592Z,2.27
2017-08-02T20:55:00.732Z,2.37
2017-08-02T20:57:31.660Z,1.80
2017-08-02T20:59:59.423Z,1.80
2017-08-02T21:02:32.783Z,2.10
2017-08-02T21:05:00.767Z,2.20
2017-08-02T21:07:31.214Z,2.10
2017-08-02T21:09:58.705Z,2.73
2017-08-02T21:12:26.212Z,2.60
2017-08-02T21:14:53.696Z,2.30
2017-08-02T21:17:31.717Z,2.70
2017-08-02T21:19:59.226Z,2.40
2017-08-02T21:22:32.761Z,2.70
2017-08-02T21:25:00.249Z,2.17
2017-08-02T21:27:28.515Z,2.73
2017-08-02T21:29:56.004Z,3.13
2017-08-02T21:32:23.600Z,2.23
2017-08-02T21:34:51.095Z,2.57
2017-08-02T21:37:18.880Z,2.07
2017-08-02T21:39:46.380Z,2.63
2017-08-02T21:42:13.876Z,2.87
2017-08-02T21:44:51.868Z,1.50
2017-08-02T21:47:19.499Z,2.23
2017-08-02T21:49:53.245Z,1.70
2017-08-02T21:52:31.619Z,2.47
2017-08-02T21:54:59.448Z,2.00
2017-08-02T21:57:26.931Z,1.93
2017-08-02T22:00:00.881Z,2.33
2017-08-02T22:02:28.366Z,2.03
2017-08-02T22:04:55.857Z,2.20
2017-08-02T22:07:30.281Z,1.90
2017-08-02T22:09:57.793Z,2.27
2017-08-02T22:12:32.808Z,2.43
2017-08-02T22:15:00.296Z,2.47
2017-08-02T22:17:28.553Z,2.60
2017-08-02T22:20:02.264Z,2.00
2017-08-02T22:22:30.525Z,1.80
2017-08-02T22:25:01.599Z,2.47
2017-08-02T22:27:29.083Z,2.90
2017-08-02T22:29:56.936Z,2.40
2017-08-02T22:32:24.422Z,2.40
2017-08-02T22:34:51.917Z,2.80
2017-08-02T22:37:20.337Z,2.30
2017-08-02T22:39:47.822Z,3.00
2017-08-02T22:42:15.596Z,3.23
2017-08-02T22:44:50.610Z,2.30
2017-08-02T22:47:21.612Z,3.00
2017-08-02T22:49:50.809Z,3.20
2017-08-02T22:52:18.315Z,2.97
2017-08-02T22:54:46.073Z,3.20
2017-08-02T22:57:20.212Z,3.60
2017-08-02T22:59:51.289Z,3.80
2017-08-02T23:02:19.563Z,2.80
2017-08-02T23:04:53.141Z,3.03
2017-08-02T23:07:20.618Z,2.67
2017-08-02T23:09:51.106Z,2.93
2017-08-02T23:12:18.604Z,2.43
2017-08-02T23:14:46.090Z,2.63
2017-08-02T23:17:13.839Z,2.53
2017-08-02T23:19:41.325Z,2.80
2017-08-02T23:22:11.860Z,2.60
2017-08-02T23:24:40.396Z,3.37
2017-08-02T23:27:07.900Z,3.30
2017-08-02T23:29:35.684Z,3.10
2017-08-02T23:32:10.896Z,3.00
2017-08-02T23:34:38.742Z,2.87
2017-08-02T23:37:06.235Z,2.60
2017-08-02T23:39:40.910Z,3.60
2017-08-02T23:42:09.170Z,2.80
2017-08-02T23:44:42.680Z,2.40
2017-08-02T23:47:10.183Z,2.83
2017-08-02T23:49:40.778Z,3.47
2017-08-02T23:52:08.274Z,3.03
2017-08-02T23:54:35.771Z,2.70
2017-08-02T23:57:10.327Z,2.47
2017-08-02T23:59:37.816Z,2.70
